Terminal Aerodrome Forecast
Issued by NWS

Home | Current Version | Previous Version | Graphics & Text | Print | Product List | Glossary On
Versions: 1 2 3 4 5 6 7 8 9 10 11 12 13
206
FTUS43 KUNR 311824 AAB
TAFGCC
TAF AMD
KGCC 311824Z 3118/0118 17017G26KT P6SM SKC
     FM010600 17023G33KT P6SM SKC
     FM011700 17015G25KT P6SM SKC=

USA.gov is the U.S. government's official web portal to all federal, state and local government web resources and services.